createdAt,value
2022-08-08T00:02:03.388Z,101937.00
2022-08-08T00:04:28.062Z,101928.88
2022-08-08T00:06:59.113Z,101931.59
2022-08-08T00:09:44.209Z,101929.97
2022-08-08T00:12:16.229Z,101926.94
2022-08-08T00:15:00.731Z,101937.06
2022-08-08T00:18:01.678Z,101927.50
2022-08-08T00:20:36.354Z,101924.75
2022-08-08T00:23:08.136Z,101929.94
2022-08-08T00:25:46.332Z,101923.41
2022-08-08T00:28:34.888Z,101923.41
2022-08-08T00:32:28.158Z,101922.06
2022-08-08T00:34:20.424Z,101928.88
2022-08-08T00:36:54.978Z,101918.50
2022-08-08T00:41:09.555Z,101926.69
2022-08-08T00:42:46.150Z,101921.75
2022-08-08T00:45:44.569Z,101927.78
2022-08-08T00:48:59.244Z,101928.03
2022-08-08T00:51:58.420Z,101928.56
2022-08-08T00:54:43.454Z,101928.03
2022-08-08T00:57:40.831Z,101917.66
2022-08-08T01:00:10.917Z,101924.47
2022-08-08T01:03:57.440Z,101922.00
2022-08-08T01:06:26.994Z,101913.03
2022-08-08T01:09:51.628Z,101908.66
2022-08-08T01:12:36.717Z,101913.53
2022-08-08T01:15:43.681Z,101915.72
2022-08-08T01:18:54.441Z,101930.41
2022-08-08T01:22:10.012Z,101917.03
2022-08-08T01:24:50.821Z,101920.56
2022-08-08T01:27:46.331Z,101922.75
2022-08-08T01:31:05.933Z,101932.00
2022-08-08T01:34:20.636Z,101930.91
2022-08-08T01:37:56.900Z,101920.78
2022-08-08T01:40:16.617Z,101918.38
2022-08-08T01:42:51.880Z,101921.59
2022-08-08T01:45:37.508Z,101916.66
2022-08-08T01:48:23.641Z,101926.22
2022-08-08T01:51:31.362Z,101933.34
2022-08-08T01:55:17.385Z,101931.41
2022-08-08T01:57:04.691Z,101934.97
2022-08-08T02:00:02.347Z,101928.69
2022-08-08T02:02:41.654Z,101924.31
2022-08-08T02:05:23.194Z,101929.75
2022-08-08T02:08:02.391Z,101937.94
2022-08-08T02:10:44.647Z,101936.81
2022-08-08T02:13:54.546Z,101943.91
2022-08-08T02:16:21.402Z,101940.34
2022-08-08T02:18:58.839Z,101940.03
2022-08-08T02:21:48.992Z,101942.75
2022-08-08T02:24:24.456Z,101937.34
2022-08-08T02:26:57.991Z,101937.88
2022-08-08T02:29:46.780Z,101942.25
2022-08-08T02:32:33.061Z,101941.16
2022-08-08T02:35:22.107Z,101941.97
2022-08-08T02:38:25.272Z,101946.59
2022-08-08T02:41:17.974Z,101938.66
2022-08-08T02:44:42.463Z,101941.06
2022-08-08T02:47:58.281Z,101937.25
2022-08-08T02:50:52.878Z,101937.22
2022-08-08T02:53:53.402Z,101938.06
2022-08-08T02:56:58.124Z,101937.78
2022-08-08T03:00:27.072Z,101936.13
2022-08-08T03:05:00.854Z,101934.75
2022-08-08T03:06:35.078Z,101928.19
2022-08-08T03:09:45.030Z,101938.00
2022-08-08T03:13:07.334Z,101942.00
2022-08-08T03:16:38.919Z,101939.28
2022-08-08T03:19:50.925Z,101947.88
2022-08-08T03:22:38.194Z,101943.81
2022-08-08T03:25:14.517Z,101944.88
2022-08-08T03:27:47.564Z,101947.03
2022-08-08T03:30:24.496Z,101944.53
2022-08-08T03:33:53.899Z,101950.31
2022-08-08T03:35:59.166Z,101942.34
2022-08-08T03:38:57.456Z,101934.72
2022-08-08T03:42:12.303Z,101945.06
2022-08-08T03:44:04.016Z,101943.47
2022-08-08T03:46:32.643Z,101940.94
2022-08-08T03:49:54.891Z,101941.75
2022-08-08T03:51:53.418Z,101947.69
2022-08-08T03:54:41.853Z,101950.66
2022-08-08T03:58:33.248Z,101956.66
2022-08-08T04:00:11.499Z,101954.78
2022-08-08T04:02:46.913Z,101954.47
2022-08-08T04:05:19.429Z,101961.50
2022-08-08T04:07:50.814Z,101959.63
2022-08-08T04:10:18.833Z,101960.44
2022-08-08T04:12:48.039Z,101959.53
2022-08-08T04:15:17.725Z,101958.63
2022-08-08T04:17:58.726Z,101956.19
2022-08-08T04:20:28.227Z,101954.56
2022-08-08T04:22:58.342Z,101964.94
2022-08-08T04:25:30.068Z,101958.41
2022-08-08T04:28:35.401Z,101958.72
2022-08-08T04:30:50.289Z,101969.69
2022-08-08T04:33:22.881Z,101958.41
2022-08-08T04:35:51.759Z,101969.69
2022-08-08T04:38:21.609Z,101969.50
2022-08-08T04:40:53.408Z,101966.81
2022-08-08T04:43:32.216Z,101973.06
2022-08-08T04:46:11.326Z,101963.84
2022-08-08T04:48:40.180Z,101969.78
2022-08-08T04:51:08.133Z,101972.53
2022-08-08T04:54:37.013Z,101977.28
2022-08-08T04:56:24.546Z,101991.34
2022-08-08T04:58:53.688Z,101975.78
2022-08-08T05:01:21.823Z,101974.53
2022-08-08T05:04:09.414Z,101979.50
2022-08-08T05:06:39.306Z,101986.38
2022-08-08T05:09:07.196Z,101985.28
2022-08-08T05:11:39.043Z,101974.69
2022-08-08T05:14:12.296Z,101982.78
2022-08-08T05:16:51.309Z,101985.88
2022-08-08T05:20:09.431Z,101982.56
2022-08-08T05:22:11.692Z,101984.25
2022-08-08T05:24:40.241Z,101985.94
2022-08-08T05:27:08.466Z,101991.97
2022-08-08T05:29:37.923Z,101996.03
2022-08-08T05:32:09.970Z,101993.03
2022-08-08T05:34:43.643Z,102002.84
2022-08-08T05:37:17.316Z,101994.16
2022-08-08T05:39:48.376Z,101998.50
2022-08-08T05:42:16.353Z,101996.31
2022-08-08T05:44:51.751Z,102004.31
2022-08-08T05:47:22.097Z,102000.59
2022-08-08T05:49:54.424Z,102001.91
2022-08-08T05:52:32.088Z,102000.56
2022-08-08T05:55:07.437Z,102001.81
2022-08-08T05:58:04.789Z,102002.97
2022-08-08T06:00:34.277Z,102001.50
2022-08-08T06:03:17.446Z,102003.66
2022-08-08T06:05:56.765Z,102009.03
2022-08-08T06:08:34.617Z,102010.09
2022-08-08T06:11:04.177Z,102006.34
2022-08-08T06:13:36.046Z,102004.25
2022-08-08T06:16:36.529Z,102005.81
2022-08-08T06:19:05.203Z,102007.47
2022-08-08T06:21:57.789Z,102020.69
2022-08-08T06:24:30.374Z,102015.38
2022-08-08T06:27:05.550Z,102016.69
2022-08-08T06:29:59.360Z,102024.44
2022-08-08T06:32:29.873Z,102027.41
2022-08-08T06:36:04.919Z,102019.91
2022-08-08T06:37:56.108Z,102034.28
2022-08-08T06:40:27.210Z,102033.06
2022-08-08T06:42:56.586Z,102040.13
2022-08-08T06:45:25.035Z,102043.53
2022-08-08T06:48:01.425Z,102039.97
2022-08-08T06:50:33.475Z,102043.28
2022-08-08T06:53:13.824Z,102042.69
2022-08-08T06:55:46.878Z,102042.47
2022-08-08T06:58:15.479Z,102042.69
2022-08-08T07:00:51.055Z,102037.16
2022-08-08T07:03:51.887Z,102039.88
2022-08-08T07:06:17.494Z,102035.66
2022-08-08T07:08:48.172Z,102047.25
2022-08-08T07:11:22.518Z,102045.16
2022-08-08T07:14:01.030Z,102039.88
2022-08-08T07:16:33.551Z,102046.13
2022-08-08T07:19:13.421Z,102040.06
2022-08-08T07:21:45.925Z,102042.88
2022-08-08T07:24:22.940Z,102033.44
2022-08-08T07:26:53.995Z,102036.13
2022-08-08T07:29:59.792Z,102039.19
2022-08-08T07:32:15.820Z,102034.75
2022-08-08T07:34:59.416Z,102037.22
2022-08-08T07:37:55.473Z,102038.31
2022-08-08T07:40:21.003Z,102046.28
2022-08-08T07:42:57.461Z,102034.28
2022-08-08T07:45:34.355Z,102052.81
2022-08-08T07:48:05.226Z,102045.72
2022-08-08T07:50:34.845Z,102053.94
2022-08-08T07:53:08.465Z,102055.00
2022-08-08T07:55:37.532Z,102053.13
2022-08-08T07:58:13.498Z,102051.75
2022-08-08T08:00:44.750Z,102061.28
2022-08-08T08:03:20.751Z,102054.69
2022-08-08T08:05:53.551Z,102062.03
2022-08-08T08:08:22.481Z,102070.28
2022-08-08T08:10:52.552Z,102064.69
2022-08-08T08:14:06.078Z,102071.19
2022-08-08T08:18:56.678Z,102063.16
2022-08-08T08:21:44.432Z,102068.16
2022-08-08T08:24:15.737Z,102057.50
2022-08-08T08:26:52.729Z,102065.03
2022-08-08T08:29:22.741Z,102062.53
2022-08-08T08:31:57.301Z,102065.22
2022-08-08T08:34:32.360Z,102061.41
2022-08-08T08:37:07.651Z,102064.59
2022-08-08T08:39:59.977Z,102063.44
2022-08-08T08:42:32.051Z,102063.09
2022-08-08T08:45:21.614Z,102060.34
2022-08-08T08:47:53.612Z,102073.44
2022-08-08T08:50:33.109Z,102062.97
2022-08-08T08:53:28.042Z,102066.31
2022-08-08T08:55:56.186Z,102070.03
2022-08-08T08:58:33.609Z,102068.44
2022-08-08T09:01:09.510Z,102068.63
2022-08-08T09:03:46.655Z,102066.72
2022-08-08T09:06:28.711Z,102076.16
2022-08-08T09:09:25.898Z,102070.56
2022-08-08T09:12:06.080Z,102069.59
2022-08-08T09:14:36.208Z,102072.50
2022-08-08T09:17:17.457Z,102066.03
2022-08-08T09:22:01.801Z,102069.19
2022-08-08T09:22:35.026Z,102072.88
2022-08-08T09:25:05.732Z,102068.06
2022-08-08T09:27:41.876Z,102071.19
2022-08-08T09:30:26.864Z,102054.78
2022-08-08T09:33:55.475Z,102060.09
2022-08-08T09:35:49.688Z,102065.38
2022-08-08T09:38:31.965Z,102064.47
2022-08-08T09:41:06.028Z,102060.63
2022-08-08T09:44:06.470Z,102056.72
2022-08-08T09:46:31.253Z,102055.06
2022-08-08T09:49:17.920Z,102055.72
2022-08-08T09:52:06.038Z,102050.75
2022-08-08T09:54:44.059Z,102061.47
2022-08-08T09:57:19.438Z,102047.63
2022-08-08T10:00:28.679Z,102045.66
2022-08-08T10:02:45.072Z,102050.91
2022-08-08T10:05:16.188Z,102054.69
2022-08-08T10:08:00.870Z,102046.50
2022-08-08T10:10:31.862Z,102046.50
2022-08-08T10:13:13.851Z,102058.13
2022-08-08T10:15:59.363Z,102050.06
2022-08-08T10:18:31.661Z,102043.56
2022-08-08T10:21:22.585Z,102046.50
2022-08-08T10:23:58.829Z,102036.88
2022-08-08T10:26:58.709Z,102042.38
2022-08-08T10:29:28.138Z,102043.06
2022-08-08T10:32:16.952Z,102039.25
2022-08-08T10:34:57.191Z,102037.28
2022-08-08T10:37:31.655Z,102039.38
2022-08-08T10:40:06.881Z,102034.53
2022-08-08T10:42:37.571Z,102033.09
2022-08-08T10:45:09.301Z,102034.84
2022-08-08T10:47:43.977Z,102028.75
2022-08-08T10:50:16.175Z,102036.59
2022-08-08T10:52:44.449Z,102036.66
2022-08-08T10:55:15.532Z,102023.00
2022-08-08T10:58:05.937Z,102029.50
2022-08-08T11:00:48.478Z,102033.19
2022-08-08T11:03:37.080Z,102036.06
2022-08-08T11:06:12.645Z,102033.28
2022-08-08T11:08:50.137Z,102033.34
2022-08-08T11:11:59.735Z,102031.97
2022-08-08T11:14:12.308Z,102033.13
2022-08-08T11:16:47.223Z,102022.91
2022-08-08T11:19:17.207Z,102023.25
2022-08-08T11:21:53.861Z,102023.19
2022-08-08T11:24:26.647Z,102026.34
2022-08-08T11:26:57.124Z,102026.69
2022-08-08T11:29:41.287Z,102021.47
2022-08-08T11:32:19.070Z,102030.59
2022-08-08T11:38:37.074Z,102027.59
2022-08-08T11:40:26.450Z,102028.91
2022-08-08T11:42:55.796Z,102024.94
2022-08-08T11:45:23.840Z,102018.94
2022-08-08T11:48:02.774Z,102023.84
2022-08-08T11:50:33.710Z,102023.94
2022-08-08T11:53:06.058Z,102025.56
2022-08-08T11:55:36.392Z,102017.50
2022-08-08T11:58:14.357Z,102019.25
2022-08-08T12:00:47.173Z,102029.88
2022-08-08T12:03:22.223Z,102031.16
2022-08-08T12:05:51.724Z,102024.34
2022-08-08T12:08:31.729Z,102025.16
2022-08-08T12:11:02.481Z,102032.16
2022-08-08T12:13:38.517Z,102034.03
2022-08-08T12:16:20.196Z,102035.19
2022-08-08T12:19:01.948Z,102029.09
2022-08-08T12:21:58.683Z,102029.00
2022-08-08T12:24:28.084Z,102033.13
2022-08-08T12:26:58.618Z,102027.44
2022-08-08T12:29:40.187Z,102030.94
2022-08-08T12:32:13.507Z,102030.59
2022-08-08T12:34:57.501Z,102030.44
2022-08-08T12:37:40.435Z,102035.94
2022-08-08T12:40:23.111Z,102034.09
2022-08-08T12:42:53.521Z,102036.16
2022-08-08T12:45:59.744Z,102029.72
2022-08-08T12:48:37.610Z,102035.78
2022-08-08T12:51:11.701Z,102034.59
2022-08-08T12:53:58.580Z,102034.97
2022-08-08T12:56:34.711Z,102030.41
2022-08-08T12:59:03.146Z,102023.69
2022-08-08T13:01:36.588Z,102020.53
2022-08-08T13:04:18.635Z,102021.34
2022-08-08T13:07:00.757Z,102020.53
2022-08-08T13:09:33.794Z,102022.28
2022-08-08T13:12:29.621Z,102019.84
2022-08-08T13:15:05.568Z,102012.69
2022-08-08T13:18:10.107Z,102022.91
2022-08-08T13:20:23.700Z,102010.28
2022-08-08T13:25:51.017Z,102011.28
2022-08-08T13:28:32.372Z,102005.63
2022-08-08T13:31:03.830Z,102011.59
2022-08-08T13:33:42.740Z,102013.94
2022-08-08T13:36:11.757Z,102009.38
2022-08-08T13:38:41.128Z,102017.53
2022-08-08T13:41:16.136Z,102017.84
2022-08-08T13:43:46.683Z,102013.66
2022-08-08T13:46:16.260Z,102023.63
2022-08-08T13:49:11.265Z,102012.63
2022-08-08T13:51:41.773Z,102013.25
2022-08-08T13:54:21.530Z,102010.91
2022-08-08T13:57:00.922Z,101999.91
2022-08-08T13:59:33.315Z,102011.06
2022-08-08T14:02:10.572Z,102008.06
2022-08-08T14:04:49.328Z,102012.63
2022-08-08T14:07:22.314Z,102017.22
2022-08-08T14:10:05.253Z,102023.03
2022-08-08T14:12:39.887Z,102019.06
2022-08-08T14:15:22.932Z,102017.22
2022-08-08T14:18:34.955Z,102022.59
2022-08-08T14:20:56.958Z,102019.22
2022-08-08T14:24:04.795Z,102018.84
2022-08-08T14:26:27.976Z,102025.97
2022-08-08T14:28:57.428Z,102021.06
2022-08-08T14:32:05.737Z,102019.84
2022-08-08T14:34:22.807Z,102024.88
2022-08-08T14:36:54.338Z,102025.03
2022-08-08T14:39:24.828Z,102022.81
2022-08-08T14:42:03.137Z,102020.34
2022-08-08T14:44:35.485Z,102020.16
2022-08-08T14:47:20.822Z,102015.44
2022-08-08T14:50:06.062Z,102021.69
2022-08-08T14:52:42.802Z,102019.81
2022-08-08T14:55:11.352Z,102022.06
2022-08-08T14:58:02.555Z,102013.53
2022-08-08T15:00:32.367Z,102015.34
2022-08-08T15:03:15.558Z,102006.41
2022-08-08T15:05:53.633Z,102009.66
2022-08-08T15:08:34.495Z,102011.06
2022-08-08T15:11:06.343Z,102006.41
2022-08-08T15:13:40.718Z,102004.66
2022-08-08T15:16:23.321Z,102005.78
2022-08-08T15:18:51.999Z,102009.16
2022-08-08T15:21:20.810Z,102008.63
2022-08-08T15:23:51.227Z,102008.63
2022-08-08T15:26:19.790Z,102007.53
2022-08-08T15:28:53.136Z,102005.88
2022-08-08T15:31:56.250Z,102005.47
2022-08-08T15:34:30.070Z,102007.88
2022-08-08T15:36:57.185Z,102006.59
2022-08-08T15:39:25.818Z,102005.56
2022-08-08T15:41:54.010Z,102007.91
2022-08-08T15:44:23.158Z,102009.34
2022-08-08T15:46:51.257Z,102007.03
2022-08-08T15:49:20.451Z,102004.47
2022-08-08T15:51:50.115Z,102001.63
2022-08-08T15:54:18.903Z,102015.56
2022-08-08T15:57:07.598Z,102000.91
2022-08-08T16:00:06.177Z,102013.13
2022-08-08T16:02:30.881Z,102007.88
2022-08-08T16:04:59.490Z,102010.81
2022-08-08T16:07:50.977Z,102011.31
2022-08-08T16:13:10.366Z,102014.47
2022-08-08T16:13:29.311Z,102004.13
2022-08-08T16:15:58.703Z,102003.16
2022-08-08T16:18:36.820Z,102011.22
2022-08-08T16:21:20.796Z,102004.38
2022-08-08T16:23:55.528Z,101999.06
2022-08-08T16:26:34.238Z,102003.25
2022-08-08T16:29:09.053Z,101999.34
2022-08-08T16:31:48.633Z,102000.59
2022-08-08T16:34:18.371Z,101998.09
2022-08-08T16:36:49.270Z,102004.03
2022-08-08T16:39:59.943Z,101998.22
2022-08-08T16:42:18.017Z,102002.63
2022-08-08T16:44:47.492Z,102005.50
2022-08-08T16:47:40.382Z,102004.63
2022-08-08T16:50:14.110Z,102007.59
2022-08-08T16:55:05.580Z,102011.59
2022-08-08T16:55:54.076Z,102009.53
2022-08-08T16:58:20.819Z,102013.81
2022-08-08T17:00:51.761Z,102014.34
2022-08-08T17:03:24.731Z,102025.41
2022-08-08T17:06:36.032Z,102024.13
2022-08-08T17:08:56.662Z,102019.00
2022-08-08T17:11:27.955Z,102026.97
2022-08-08T17:14:01.406Z,102032.22
2022-08-08T17:16:29.865Z,102035.91
2022-08-08T17:19:00.694Z,102029.97
2022-08-08T17:21:37.168Z,102039.25
2022-08-08T17:24:22.036Z,102035.94
2022-08-08T17:26:57.905Z,102038.84
2022-08-08T17:29:26.591Z,102045.72
2022-08-08T17:31:54.321Z,102050.66
2022-08-08T17:34:47.856Z,102048.75
2022-08-08T17:37:14.699Z,102058.47
2022-08-08T17:40:03.361Z,102057.88
2022-08-08T17:42:30.524Z,102055.66
2022-08-08T17:44:58.507Z,102052.16
2022-08-08T17:47:27.855Z,102050.66
2022-08-08T17:50:02.515Z,102054.97
2022-08-08T17:52:31.426Z,102051.22
2022-08-08T17:55:05.485Z,102062.06
2022-08-08T17:57:37.509Z,102064.09
2022-08-08T18:00:13.282Z,102059.16
2022-08-08T18:02:52.385Z,102056.47
2022-08-08T18:05:48.530Z,102064.75
2022-08-08T18:08:24.704Z,102070.69
2022-08-08T18:11:14.600Z,102065.09
2022-08-08T18:13:44.204Z,102075.16
2022-08-08T18:16:20.615Z,102068.13
2022-08-08T18:18:53.805Z,102068.63
2022-08-08T18:21:59.701Z,102075.84
2022-08-08T18:24:18.899Z,102073.13
2022-08-08T18:26:54.629Z,102076.81
2022-08-08T18:29:27.124Z,102076.44
2022-08-08T18:31:58.884Z,102077.41
2022-08-08T18:34:27.867Z,102090.00
2022-08-08T18:36:57.185Z,102087.59
2022-08-08T18:39:28.254Z,102081.19
2022-08-08T18:42:03.305Z,102091.34
2022-08-08T18:44:33.144Z,102094.63
2022-08-08T18:47:02.959Z,102088.09
2022-08-08T18:49:32.575Z,102104.00
2022-08-08T18:52:18.226Z,102098.78
2022-08-08T18:55:00.510Z,102100.69
2022-08-08T18:57:41.640Z,102106.47
2022-08-08T19:00:15.759Z,102113.53
2022-08-08T19:02:54.714Z,102110.53
2022-08-08T19:05:24.234Z,102120.53
2022-08-08T19:07:59.945Z,102118.34
2022-08-08T19:10:28.438Z,102124.13
2022-08-08T19:12:57.873Z,102132.59
2022-08-08T19:15:33.941Z,102125.81
2022-08-08T19:18:33.191Z,102126.75
2022-08-08T19:20:53.851Z,102129.16
2022-08-08T19:23:23.746Z,102135.50
2022-08-08T19:26:20.231Z,102130.31
2022-08-08T19:28:41.601Z,102136.13
2022-08-08T19:31:10.008Z,102141.31
2022-08-08T19:34:04.299Z,102145.75
2022-08-08T19:36:28.617Z,102145.63
2022-08-08T19:38:58.061Z,102140.38
2022-08-08T19:41:30.210Z,102140.03
2022-08-08T19:44:04.140Z,102138.84
2022-08-08T19:46:40.531Z,102152.09
2022-08-08T19:49:09.751Z,102137.56
2022-08-08T19:51:41.447Z,102143.84
2022-08-08T19:54:13.148Z,102144.81
2022-08-08T19:56:48.537Z,102141.09
2022-08-08T19:59:18.996Z,102137.03
2022-08-08T20:02:03.013Z,102142.84
2022-08-08T20:04:33.209Z,102139.31
2022-08-08T20:07:05.299Z,102142.34
2022-08-08T20:09:55.690Z,102140.13
2022-08-08T20:12:31.562Z,102156.66
2022-08-08T20:15:14.322Z,102159.72
2022-08-08T20:17:46.308Z,102160.75
2022-08-08T20:20:19.717Z,102160.28
2022-08-08T20:22:52.749Z,102154.63
2022-08-08T20:25:24.566Z,102164.78
2022-08-08T20:27:54.668Z,102167.31
2022-08-08T20:30:53.467Z,102163.44
2022-08-08T20:33:20.164Z,102175.13
2022-08-08T20:35:58.425Z,102181.09
2022-08-08T20:38:32.611Z,102183.00
2022-08-08T20:41:06.019Z,102181.97
2022-08-08T20:43:49.375Z,102183.66
2022-08-08T20:46:20.529Z,102175.31
2022-08-08T20:48:51.129Z,102181.75
2022-08-08T20:51:20.963Z,102182.53
2022-08-08T20:53:59.862Z,102174.28
2022-08-08T20:56:34.932Z,102178.03
2022-08-08T20:59:06.343Z,102175.56
2022-08-08T21:02:05.661Z,102175.78
2022-08-08T21:04:27.634Z,102172.59
2022-08-08T21:06:56.431Z,102171.06
2022-08-08T21:09:31.616Z,102178.34
2022-08-08T21:12:14.322Z,102176.53
2022-08-08T21:14:48.971Z,102178.47
2022-08-08T21:17:17.193Z,102182.91
2022-08-08T21:19:47.497Z,102177.53
2022-08-08T21:22:15.998Z,102182.16
2022-08-08T21:24:52.458Z,102179.38
2022-08-08T21:27:38.671Z,102176.13
2022-08-08T21:30:18.970Z,102177.19
2022-08-08T21:32:51.523Z,102179.25
2022-08-08T21:36:14.317Z,102177.53
2022-08-08T21:38:16.043Z,102181.03
2022-08-08T21:40:55.843Z,102174.56
2022-08-08T21:43:33.259Z,102177.06
2022-08-08T21:48:06.689Z,102181.50
2022-08-08T21:48:52.099Z,102174.69
2022-08-08T21:51:45.870Z,102187.31
2022-08-08T21:54:36.073Z,102186.28
2022-08-08T21:56:59.167Z,102188.47
2022-08-08T22:00:03.257Z,102187.91
2022-08-08T22:02:19.559Z,102201.94
2022-08-08T22:04:51.484Z,102201.13
2022-08-08T22:07:19.349Z,102197.06
2022-08-08T22:09:47.399Z,102195.09
2022-08-08T22:12:16.930Z,102198.34
2022-08-08T22:14:47.359Z,102198.34
2022-08-08T22:17:18.333Z,102201.09
2022-08-08T22:20:10.494Z,102200.81
2022-08-08T22:22:37.905Z,102196.50
2022-08-08T22:25:12.467Z,102200.31
2022-08-08T22:28:03.038Z,102194.59
2022-08-08T22:30:34.261Z,102206.97
2022-08-08T22:33:02.814Z,102212.16
2022-08-08T22:36:04.034Z,102208.38
2022-08-08T22:38:24.752Z,102202.69
2022-08-08T22:40:52.526Z,102211.09
2022-08-08T22:43:20.265Z,102213.38
2022-08-08T22:45:52.609Z,102215.28
2022-08-08T22:48:21.510Z,102221.31
2022-08-08T22:50:49.650Z,102208.75
2022-08-08T22:54:34.177Z,102215.59
2022-08-08T22:56:06.945Z,102213.34
2022-08-08T22:58:35.247Z,102207.88
2022-08-08T23:01:26.702Z,102211.50
2022-08-08T23:03:56.842Z,102213.69
2022-08-08T23:06:25.292Z,102217.78
2022-08-08T23:08:54.794Z,102225.47
2022-08-08T23:11:30.744Z,102221.63
2022-08-08T23:14:12.628Z,102229.34
2022-08-08T23:16:44.229Z,102229.63
2022-08-08T23:19:16.120Z,102236.72
2022-08-08T23:21:46.899Z,102231.22
2022-08-08T23:24:22.546Z,102235.88
2022-08-08T23:26:53.459Z,102236.16
2022-08-08T23:29:23.995Z,102233.72
2022-08-08T23:31:53.303Z,102236.97
2022-08-08T23:34:22.133Z,102243.59
2022-08-08T23:36:56.469Z,102229.66
2022-08-08T23:39:26.243Z,102238.13
2022-08-08T23:42:00.508Z,102239.78
2022-08-08T23:44:29.953Z,102235.13
2022-08-08T23:49:02.867Z,102239.78
2022-08-08T23:50:02.937Z,102241.16
2022-08-08T23:52:31.843Z,102241.16
2022-08-08T23:55:07.482Z,102237.06
2022-08-08T23:57:52.286Z,102239.22
